sensor_id;sensor_type;location;lat;lon;timestamp;temperature;humidity
46416;DHT22;32620;51.704;7.822;2023-03-24T00:02:23;11.90;99.90
46416;DHT22;32620;51.704;7.822;2023-03-24T00:04:49;11.80;99.90
46416;DHT22;32620;51.704;7.822;2023-03-24T00:07:17;11.80;99.90
46416;DHT22;32620;51.704;7.822;2023-03-24T00:09:44;11.80;99.90
46416;DHT22;32620;51.704;7.822;2023-03-24T00:12:11;11.80;99.90
46416;DHT22;32620;51.704;7.822;2023-03-24T00:14:39;11.90;99.90
46416;DHT22;32620;51.704;7.822;2023-03-24T00:17:06;11.80;99.90
46416;DHT22;32620;51.704;7.822;2023-03-24T00:19:34;11.90;99.90
46416;DHT22;32620;51.704;7.822;2023-03-24T00:22:03;11.80;99.90
46416;DHT22;32620;51.704;7.822;2023-03-24T00:24:29;11.80;99.90
46416;DHT22;32620;51.704;7.822;2023-03-24T00:26:54;11.80;99.90
46416;DHT22;32620;51.704;7.822;2023-03-24T00:29:22;11.80;99.90
46416;DHT22;32620;51.704;7.822;2023-03-24T00:31:49;11.80;99.90
46416;DHT22;32620;51.704;7.822;2023-03-24T00:34:18;11.80;99.90
46416;DHT22;32620;51.704;7.822;2023-03-24T00:36:46;11.80;99.90
46416;DHT22;32620;51.704;7.822;2023-03-24T00:39:13;11.80;99.90
46416;DHT22;32620;51.704;7.822;2023-03-24T00:41:41;11.80;99.90
46416;DHT22;32620;51.704;7.822;2023-03-24T00:44:10;11.80;99.90
46416;DHT22;32620;51.704;7.822;2023-03-24T00:46:44;11.80;99.90
46416;DHT22;32620;51.704;7.822;2023-03-24T00:49:11;11.80;99.90
46416;DHT22;32620;51.704;7.822;2023-03-24T00:51:39;11.80;99.90
46416;DHT22;32620;51.704;7.822;2023-03-24T00:54:07;11.80;99.90
46416;DHT22;32620;51.704;7.822;2023-03-24T00:56:34;11.80;99.90
46416;DHT22;32620;51.704;7.822;2023-03-24T00:59:01;11.80;99.90
46416;DHT22;32620;51.704;7.822;2023-03-24T01:01:30;11.80;99.90
46416;DHT22;32620;51.704;7.822;2023-03-24T01:03:59;11.80;99.90
46416;DHT22;32620;51.704;7.822;2023-03-24T01:06:25;11.80;99.90
46416;DHT22;32620;51.704;7.822;2023-03-24T01:09:01;11.90;99.90
46416;DHT22;32620;51.704;7.822;2023-03-24T01:11:35;11.90;99.90
46416;DHT22;32620;51.704;7.822;2023-03-24T01:14:02;11.90;99.90
46416;DHT22;32620;51.704;7.822;2023-03-24T01:16:28;11.90;99.90
46416;DHT22;32620;51.704;7.822;2023-03-24T01:18:53;11.90;99.90
46416;DHT22;32620;51.704;7.822;2023-03-24T01:21:19;11.90;99.90
46416;DHT22;32620;51.704;7.822;2023-03-24T01:23:45;12.00;99.90
46416;DHT22;32620;51.704;7.822;2023-03-24T01:26:10;12.00;99.90
46416;DHT22;32620;51.704;7.822;2023-03-24T01:28:36;12.10;99.90
46416;DHT22;32620;51.704;7.822;2023-03-24T01:31:06;12.20;99.90
46416;DHT22;32620;51.704;7.822;2023-03-24T01:33:33;12.30;99.90
46416;DHT22;32620;51.704;7.822;2023-03-24T01:35:59;12.30;99.90
46416;DHT22;32620;51.704;7.822;2023-03-24T01:38:24;12.30;99.90
46416;DHT22;32620;51.704;7.822;2023-03-24T01:40:51;12.30;99.90
46416;DHT22;32620;51.704;7.822;2023-03-24T01:43:20;12.30;99.90
46416;DHT22;32620;51.704;7.822;2023-03-24T01:45:55;12.40;99.90
46416;DHT22;32620;51.704;7.822;2023-03-24T01:48:27;12.40;99.90
46416;DHT22;32620;51.704;7.822;2023-03-24T01:51:03;12.40;99.90
46416;DHT22;32620;51.704;7.822;2023-03-24T01:53:31;12.30;99.90
46416;DHT22;32620;51.704;7.822;2023-03-24T01:55:59;12.30;99.90
46416;DHT22;32620;51.704;7.822;2023-03-24T01:58:28;12.30;99.90
46416;DHT22;32620;51.704;7.822;2023-03-24T02:00:55;12.30;99.90
46416;DHT22;32620;51.704;7.822;2023-03-24T02:03:22;12.20;99.90
46416;DHT22;32620;51.704;7.822;2023-03-24T02:05:52;12.20;99.90
46416;DHT22;32620;51.704;7.822;2023-03-24T02:08:32;12.30;99.90
46416;DHT22;32620;51.704;7.822;2023-03-24T02:10:59;12.30;99.90
46416;DHT22;32620;51.704;7.822;2023-03-24T02:13:25;12.20;99.90
46416;DHT22;32620;51.704;7.822;2023-03-24T02:28:16;12.10;99.90
46416;DHT22;32620;51.704;7.822;2023-03-24T02:31:39;12.10;99.90
46416;DHT22;32620;51.704;7.822;2023-03-24T02:37:20;12.20;99.90
46416;DHT22;32620;51.704;7.822;2023-03-24T02:40:15;12.30;99.90
46416;DHT22;32620;51.704;7.822;2023-03-24T02:45:49;12.30;99.90
46416;DHT22;32620;51.704;7.822;2023-03-24T02:48:30;12.30;99.90
46416;DHT22;32620;51.704;7.822;2023-03-24T02:51:23;12.20;99.90
46416;DHT22;32620;51.704;7.822;2023-03-24T02:54:00;12.30;99.90
46416;DHT22;32620;51.704;7.822;2023-03-24T02:56:37;12.30;99.90
46416;DHT22;32620;51.704;7.822;2023-03-24T02:59:05;12.30;99.90
46416;DHT22;32620;51.704;7.822;2023-03-24T03:04:17;12.40;99.90
46416;DHT22;32620;51.704;7.822;2023-03-24T03:06:48;12.40;99.90
46416;DHT22;32620;51.704;7.822;2023-03-24T03:09:17;12.40;99.90
46416;DHT22;32620;51.704;7.822;2023-03-24T03:11:46;12.40;99.90
46416;DHT22;32620;51.704;7.822;2023-03-24T03:14:18;12.30;99.90
46416;DHT22;32620;51.704;7.822;2023-03-24T03:16:52;12.30;99.90
46416;DHT22;32620;51.704;7.822;2023-03-24T03:19:31;12.30;99.90
46416;DHT22;32620;51.704;7.822;2023-03-24T03:21:59;12.30;99.90
46416;DHT22;32620;51.704;7.822;2023-03-24T03:24:32;12.30;99.90
46416;DHT22;32620;51.704;7.822;2023-03-24T03:27:03;12.40;99.90
46416;DHT22;32620;51.704;7.822;2023-03-24T03:29:35;12.40;99.90
46416;DHT22;32620;51.704;7.822;2023-03-24T03:32:03;12.50;99.90
46416;DHT22;32620;51.704;7.822;2023-03-24T03:37:26;12.50;99.90
46416;DHT22;32620;51.704;7.822;2023-03-24T03:39:58;12.50;99.90
46416;DHT22;32620;51.704;7.822;2023-03-24T03:42:26;12.60;99.90
46416;DHT22;32620;51.704;7.822;2023-03-24T03:44:52;12.70;99.90
46416;DHT22;32620;51.704;7.822;2023-03-24T03:47:18;12.80;99.90
46416;DHT22;32620;51.704;7.822;2023-03-24T03:49:45;12.80;99.90
46416;DHT22;32620;51.704;7.822;2023-03-24T03:52:12;12.90;99.90
46416;DHT22;32620;51.704;7.822;2023-03-24T03:54:39;12.90;99.90
46416;DHT22;32620;51.704;7.822;2023-03-24T03:57:05;12.90;99.70
46416;DHT22;32620;51.704;7.822;2023-03-24T03:59:34;12.90;99.90
46416;DHT22;32620;51.704;7.822;2023-03-24T04:02:42;12.90;98.70
46416;DHT22;32620;51.704;7.822;2023-03-24T04:05:15;13.00;97.20
46416;DHT22;32620;51.704;7.822;2023-03-24T04:08:00;13.00;99.20
46416;DHT22;32620;51.704;7.822;2023-03-24T04:13:44;13.00;99.90
46416;DHT22;32620;51.704;7.822;2023-03-24T04:16:21;12.90;99.90
46416;DHT22;32620;51.704;7.822;2023-03-24T04:27:32;12.90;99.90
46416;DHT22;32620;51.704;7.822;2023-03-24T04:30:20;12.90;99.90
46416;DHT22;32620;51.704;7.822;2023-03-24T04:32:59;12.90;99.90
46416;DHT22;32620;51.704;7.822;2023-03-24T04:35:34;12.80;99.90
46416;DHT22;32620;51.704;7.822;2023-03-24T04:38:03;12.70;99.90
46416;DHT22;32620;51.704;7.822;2023-03-24T04:40:32;12.70;99.90
46416;DHT22;32620;51.704;7.822;2023-03-24T04:43:00;12.60;99.90
46416;DHT22;32620;51.704;7.822;2023-03-24T04:45:29;12.50;99.90
46416;DHT22;32620;51.704;7.822;2023-03-24T04:47:59;12.50;99.90
46416;DHT22;32620;51.704;7.822;2023-03-24T04:50:28;12.40;99.90
46416;DHT22;32620;51.704;7.822;2023-03-24T04:52:55;12.40;99.90
46416;DHT22;32620;51.704;7.822;2023-03-24T04:58:03;12.30;99.90
46416;DHT22;32620;51.704;7.822;2023-03-24T05:00:29;12.30;99.90
46416;DHT22;32620;51.704;7.822;2023-03-24T05:02:56;12.20;99.90
46416;DHT22;32620;51.704;7.822;2023-03-24T05:05:21;12.20;99.90
46416;DHT22;32620;51.704;7.822;2023-03-24T05:07:47;12.20;99.90
46416;DHT22;32620;51.704;7.822;2023-03-24T05:10:14;12.30;99.90
46416;DHT22;32620;51.704;7.822;2023-03-24T05:12:40;12.30;99.90
46416;DHT22;32620;51.704;7.822;2023-03-24T05:15:06;12.40;99.90
46416;DHT22;32620;51.704;7.822;2023-03-24T05:17:31;12.40;99.90
46416;DHT22;32620;51.704;7.822;2023-03-24T05:19:57;12.40;99.90
46416;DHT22;32620;51.704;7.822;2023-03-24T05:22:22;12.40;99.90
46416;DHT22;32620;51.704;7.822;2023-03-24T05:24:48;12.40;99.90
46416;DHT22;32620;51.704;7.822;2023-03-24T05:27:13;12.40;99.90
46416;DHT22;32620;51.704;7.822;2023-03-24T05:29:39;12.40;99.90
46416;DHT22;32620;51.704;7.822;2023-03-24T05:32:05;12.40;99.90
46416;DHT22;32620;51.704;7.822;2023-03-24T05:34:30;12.40;99.90
46416;DHT22;32620;51.704;7.822;2023-03-24T05:36:56;12.40;99.90
46416;DHT22;32620;51.704;7.822;2023-03-24T05:39:21;12.40;99.90
46416;DHT22;32620;51.704;7.822;2023-03-24T05:41:47;12.40;99.90
46416;DHT22;32620;51.704;7.822;2023-03-24T05:44:12;12.40;99.90
46416;DHT22;32620;51.704;7.822;2023-03-24T05:46:38;12.40;99.90
46416;DHT22;32620;51.704;7.822;2023-03-24T05:49:03;12.40;99.90
46416;DHT22;32620;51.704;7.822;2023-03-24T05:51:29;12.40;99.90
46416;DHT22;32620;51.704;7.822;2023-03-24T05:53:55;12.40;99.90
46416;DHT22;32620;51.704;7.822;2023-03-24T05:56:20;12.40;99.90
46416;DHT22;32620;51.704;7.822;2023-03-24T05:58:46;12.50;99.90
46416;DHT22;32620;51.704;7.822;2023-03-24T06:01:11;12.50;99.90
46416;DHT22;32620;51.704;7.822;2023-03-24T06:03:37;12.50;99.90
46416;DHT22;32620;51.704;7.822;2023-03-24T06:06:06;12.50;98.00
46416;DHT22;32620;51.704;7.822;2023-03-24T06:08:34;12.60;90.00
46416;DHT22;32620;51.704;7.822;2023-03-24T06:11:02;12.50;87.50
46416;DHT22;32620;51.704;7.822;2023-03-24T06:13:28;12.40;84.20
46416;DHT22;32620;51.704;7.822;2023-03-24T06:15:54;12.30;67.00
46416;DHT22;32620;51.704;7.822;2023-03-24T06:18:24;12.10;13.70
46416;DHT22;32620;51.704;7.822;2023-03-24T06:20:52;12.00;6.40
46416;DHT22;32620;51.704;7.822;2023-03-24T06:23:21;11.90;10.00
46416;DHT22;32620;51.704;7.822;2023-03-24T06:25:48;11.80;15.20
46416;DHT22;32620;51.704;7.822;2023-03-24T06:28:15;11.70;19.50
46416;DHT22;32620;51.704;7.822;2023-03-24T06:30:43;11.70;26.10
46416;DHT22;32620;51.704;7.822;2023-03-24T06:33:09;11.70;29.70
46416;DHT22;32620;51.704;7.822;2023-03-24T06:35:36;12.20;19.60
46416;DHT22;32620;51.704;7.822;2023-03-24T06:38:02;13.20;1.00
46416;DHT22;32620;51.704;7.822;2023-03-24T06:40:27;13.50;1.00
46416;DHT22;32620;51.704;7.822;2023-03-24T06:42:53;13.30;1.00
46416;DHT22;32620;51.704;7.822;2023-03-24T06:45:19;13.00;1.00
46416;DHT22;32620;51.704;7.822;2023-03-24T06:47:45;12.60;1.00
46416;DHT22;32620;51.704;7.822;2023-03-24T06:50:11;12.10;8.00
46416;DHT22;32620;51.704;7.822;2023-03-24T06:52:36;11.90;23.60
46416;DHT22;32620;51.704;7.822;2023-03-24T06:55:02;11.90;30.80
46416;DHT22;32620;51.704;7.822;2023-03-24T06:57:28;11.80;25.10
46416;DHT22;32620;51.704;7.822;2023-03-24T06:59:55;11.70;38.10
46416;DHT22;32620;51.704;7.822;2023-03-24T07:02:20;11.50;44.70
46416;DHT22;32620;51.704;7.822;2023-03-24T07:04:46;11.50;46.70
46416;DHT22;32620;51.704;7.822;2023-03-24T07:07:12;11.60;43.30
46416;DHT22;32620;51.704;7.822;2023-03-24T07:09:38;11.70;38.80
46416;DHT22;32620;51.704;7.822;2023-03-24T07:12:05;11.70;31.30
46416;DHT22;32620;51.704;7.822;2023-03-24T07:14:31;12.30;1.00
46416;DHT22;32620;51.704;7.822;2023-03-24T07:16:56;13.30;1.00
46416;DHT22;32620;51.704;7.822;2023-03-24T07:19:23;13.50;99.90
46416;DHT22;32620;51.704;7.822;2023-03-24T07:21:49;13.10;1.00
46416;DHT22;32620;51.704;7.822;2023-03-24T07:26:43;13.60;1.00
46416;DHT22;32620;51.704;7.822;2023-03-24T07:29:09;14.20;99.90
46416;DHT22;32620;51.704;7.822;2023-03-24T07:31:36;14.20;99.90
46416;DHT22;32620;51.704;7.822;2023-03-24T07:34:04;13.80;1.00
46416;DHT22;32620;51.704;7.822;2023-03-24T08:27:42;14.30;15.80
46416;DHT22;32620;51.704;7.822;2023-03-24T08:30:10;14.10;99.90
46416;DHT22;32620;51.704;7.822;2023-03-24T08:32:44;14.10;99.90
46416;DHT22;32620;51.704;7.822;2023-03-24T08:35:13;14.60;99.90
46416;DHT22;32620;51.704;7.822;2023-03-24T08:37:40;14.20;99.90
46416;DHT22;32620;51.704;7.822;2023-03-24T08:40:08;14.00;99.90
46416;DHT22;32620;51.704;7.822;2023-03-24T08:42:39;14.10;35.00
46416;DHT22;32620;51.704;7.822;2023-03-24T08:45:06;13.70;99.90
46416;DHT22;32620;51.704;7.822;2023-03-24T08:47:31;13.60;99.90
46416;DHT22;32620;51.704;7.822;2023-03-24T08:49:57;13.30;99.90
46416;DHT22;32620;51.704;7.822;2023-03-24T08:52:23;13.40;99.90
46416;DHT22;32620;51.704;7.822;2023-03-24T08:54:49;13.40;99.90
46416;DHT22;32620;51.704;7.822;2023-03-24T08:57:15;13.20;99.90
46416;DHT22;32620;51.704;7.822;2023-03-24T08:59:41;13.30;99.90
46416;DHT22;32620;51.704;7.822;2023-03-24T09:02:10;13.60;99.90
46416;DHT22;32620;51.704;7.822;2023-03-24T09:04:36;14.20;1.00
46416;DHT22;32620;51.704;7.822;2023-03-24T09:07:02;14.30;1.00
46416;DHT22;32620;51.704;7.822;2023-03-24T09:09:28;14.80;99.90
46416;DHT22;32620;51.704;7.822;2023-03-24T09:11:54;14.60;99.90
46416;DHT22;32620;51.704;7.822;2023-03-24T09:14:19;14.20;99.90
46416;DHT22;32620;51.704;7.822;2023-03-24T09:16:47;14.20;99.90
46416;DHT22;32620;51.704;7.822;2023-03-24T09:19:13;14.10;99.90
46416;DHT22;32620;51.704;7.822;2023-03-24T09:21:39;14.30;99.90
46416;DHT22;32620;51.704;7.822;2023-03-24T09:24:06;14.30;99.90
46416;DHT22;32620;51.704;7.822;2023-03-24T09:26:32;14.40;99.90
46416;DHT22;32620;51.704;7.822;2023-03-24T09:28:58;14.40;61.90
46416;DHT22;32620;51.704;7.822;2023-03-24T09:31:24;14.10;99.90
46416;DHT22;32620;51.704;7.822;2023-03-24T09:33:50;13.80;99.90
46416;DHT22;32620;51.704;7.822;2023-03-24T09:36:15;13.70;99.90
46416;DHT22;32620;51.704;7.822;2023-03-24T09:38:41;13.70;99.90
46416;DHT22;32620;51.704;7.822;2023-03-24T09:41:16;13.80;99.90
46416;DHT22;32620;51.704;7.822;2023-03-24T09:43:47;14.50;99.90
46416;DHT22;32620;51.704;7.822;2023-03-24T09:46:21;14.40;56.40
46416;DHT22;32620;51.704;7.822;2023-03-24T09:48:50;15.10;1.00
46416;DHT22;32620;51.704;7.822;2023-03-24T09:51:28;15.90;1.00
46416;DHT22;32620;51.704;7.822;2023-03-24T09:56:39;15.60;1.00
46416;DHT22;32620;51.704;7.822;2023-03-24T10:01:48;14.10;99.90
46416;DHT22;32620;51.704;7.822;2023-03-24T10:04:17;13.90;15.60
46416;DHT22;32620;51.704;7.822;2023-03-24T10:06:44;14.00;99.90
46416;DHT22;32620;51.704;7.822;2023-03-24T10:09:28;14.00;5.20
46416;DHT22;32620;51.704;7.822;2023-03-24T10:12:10;13.90;99.90
46416;DHT22;32620;51.704;7.822;2023-03-24T10:20:38;14.80;99.90
46416;DHT22;32620;51.704;7.822;2023-03-24T10:23:32;15.10;99.90
46416;DHT22;32620;51.704;7.822;2023-03-24T10:26:51;14.70;14.00
46416;DHT22;32620;51.704;7.822;2023-03-24T10:29:26;14.40;99.90
46416;DHT22;32620;51.704;7.822;2023-03-24T10:32:04;14.70;99.90
46416;DHT22;32620;51.704;7.822;2023-03-24T10:34:32;14.80;1.00
46416;DHT22;32620;51.704;7.822;2023-03-24T10:37:00;14.80;1.00
46416;DHT22;32620;51.704;7.822;2023-03-24T10:39:27;14.60;95.40
46416;DHT22;32620;51.704;7.822;2023-03-24T10:41:53;14.50;99.90
46416;DHT22;32620;51.704;7.822;2023-03-24T10:44:20;14.60;79.30
46416;DHT22;32620;51.704;7.822;2023-03-24T10:46:49;14.40;75.10
46416;DHT22;32620;51.704;7.822;2023-03-24T10:49:19;14.70;44.60
46416;DHT22;32620;51.704;7.822;2023-03-24T10:51:47;15.00;1.00
46416;DHT22;32620;51.704;7.822;2023-03-24T10:54:24;15.50;99.90
46416;DHT22;32620;51.704;7.822;2023-03-24T10:57:00;16.20;99.90
46416;DHT22;32620;51.704;7.822;2023-03-24T10:59:38;16.50;99.90
46416;DHT22;32620;51.704;7.822;2023-03-24T11:02:16;16.60;99.90
46416;DHT22;32620;51.704;7.822;2023-03-24T11:04:47;16.40;1.00
46416;DHT22;32620;51.704;7.822;2023-03-24T11:07:20;16.60;1.00
46416;DHT22;32620;51.704;7.822;2023-03-24T11:12:42;16.60;1.00
46416;DHT22;32620;51.704;7.822;2023-03-24T11:15:16;17.10;99.90
46416;DHT22;32620;51.704;7.822;2023-03-24T11:17:44;17.50;99.90
46416;DHT22;32620;51.704;7.822;2023-03-24T11:20:23;16.90;99.90
46416;DHT22;32620;51.704;7.822;2023-03-24T11:25:40;15.80;99.90
46416;DHT22;32620;51.704;7.822;2023-03-24T11:58:52;15.60;1.00
46416;DHT22;32620;51.704;7.822;2023-03-24T12:13:12;14.80;60.30
46416;DHT22;32620;51.704;7.822;2023-03-24T12:15:55;14.80;99.90
46416;DHT22;32620;51.704;7.822;2023-03-24T12:18:43;15.00;99.90
46416;DHT22;32620;51.704;7.822;2023-03-24T12:24:33;15.10;99.90
46416;DHT22;32620;51.704;7.822;2023-03-24T12:27:04;14.90;99.90
46416;DHT22;32620;51.704;7.822;2023-03-24T12:29:43;14.80;99.90
46416;DHT22;32620;51.704;7.822;2023-03-24T12:32:50;14.90;99.90
46416;DHT22;32620;51.704;7.822;2023-03-24T12:35:29;15.10;99.90
46416;DHT22;32620;51.704;7.822;2023-03-24T12:38:10;15.00;76.50
46416;DHT22;32620;51.704;7.822;2023-03-24T12:41:22;14.80;1.00
46416;DHT22;32620;51.704;7.822;2023-03-24T12:43:47;14.70;93.10
46416;DHT22;32620;51.704;7.822;2023-03-24T12:46:37;14.60;99.90
46416;DHT22;32620;51.704;7.822;2023-03-24T12:49:22;15.10;60.90
46416;DHT22;32620;51.704;7.822;2023-03-24T12:52:22;15.40;1.00
46416;DHT22;32620;51.704;7.822;2023-03-24T12:55:12;15.30;1.00
46416;DHT22;32620;51.704;7.822;2023-03-24T12:57:44;15.20;99.90
46416;DHT22;32620;51.704;7.822;2023-03-24T13:03:00;15.20;99.90
46416;DHT22;32620;51.704;7.822;2023-03-24T13:05:30;15.40;99.90
46416;DHT22;32620;51.704;7.822;2023-03-24T13:08:00;15.30;99.90
46416;DHT22;32620;51.704;7.822;2023-03-24T13:10:28;15.30;99.90
46416;DHT22;32620;51.704;7.822;2023-03-24T13:13:03;15.50;1.00
46416;DHT22;32620;51.704;7.822;2023-03-24T13:15:39;15.50;1.00
46416;DHT22;32620;51.704;7.822;2023-03-24T13:20:56;16.00;1.00
46416;DHT22;32620;51.704;7.822;2023-03-24T13:23:41;15.80;99.90
46416;DHT22;32620;51.704;7.822;2023-03-24T13:26:19;15.70;99.90
46416;DHT22;32620;51.704;7.822;2023-03-24T13:29:03;15.80;99.90
46416;DHT22;32620;51.704;7.822;2023-03-24T13:31:38;16.00;99.90
46416;DHT22;32620;51.704;7.822;2023-03-24T13:34:14;16.10;99.90
46416;DHT22;32620;51.704;7.822;2023-03-24T13:36:47;16.10;99.90
46416;DHT22;32620;51.704;7.822;2023-03-24T13:39:18;15.70;99.90
46416;DHT22;32620;51.704;7.822;2023-03-24T13:41:53;15.60;1.00
46416;DHT22;32620;51.704;7.822;2023-03-24T13:44:23;15.70;1.00
46416;DHT22;32620;51.704;7.822;2023-03-24T13:47:13;15.80;1.00
46416;DHT22;32620;51.704;7.822;2023-03-24T13:49:42;15.50;1.00
46416;DHT22;32620;51.704;7.822;2023-03-24T13:52:22;15.40;99.90
46416;DHT22;32620;51.704;7.822;2023-03-24T13:54:53;15.20;99.90
46416;DHT22;32620;51.704;7.822;2023-03-24T13:57:21;15.10;1.00
46416;DHT22;32620;51.704;7.822;2023-03-24T14:02:54;15.00;43.80
46416;DHT22;32620;51.704;7.822;2023-03-24T14:15:54;15.10;99.90
46416;DHT22;32620;51.704;7.822;2023-03-24T14:20:58;15.70;1.00
46416;DHT22;32620;51.704;7.822;2023-03-24T14:23:45;15.30;1.00
46416;DHT22;32620;51.704;7.822;2023-03-24T14:28:57;14.90;1.00
46416;DHT22;32620;51.704;7.822;2023-03-24T14:31:27;14.60;1.00
46416;DHT22;32620;51.704;7.822;2023-03-24T14:36:40;14.40;99.90
46416;DHT22;32620;51.704;7.822;2023-03-24T14:39:42;14.20;99.90
46416;DHT22;32620;51.704;7.822;2023-03-24T14:41:56;13.60;99.90
46416;DHT22;32620;51.704;7.822;2023-03-24T14:47:25;12.20;1.00
46416;DHT22;32620;51.704;7.822;2023-03-24T14:49:53;11.70;1.00
46416;DHT22;32620;51.704;7.822;2023-03-24T14:52:24;11.70;1.00
46416;DHT22;32620;51.704;7.822;2023-03-24T14:55:03;11.90;1.00
46416;DHT22;32620;51.704;7.822;2023-03-24T14:57:33;12.00;1.00
46416;DHT22;32620;51.704;7.822;2023-03-24T15:00:04;12.00;1.00
46416;DHT22;32620;51.704;7.822;2023-03-24T15:02:40;12.10;1.00
46416;DHT22;32620;51.704;7.822;2023-03-24T15:08:15;12.00;1.00
46416;DHT22;32620;51.704;7.822;2023-03-24T15:10:53;12.00;1.00
46416;DHT22;32620;51.704;7.822;2023-03-24T15:13:28;12.00;1.00
46416;DHT22;32620;51.704;7.822;2023-03-24T15:15:55;12.00;1.00
46416;DHT22;32620;51.704;7.822;2023-03-24T15:18:22;11.90;1.00
46416;DHT22;32620;51.704;7.822;2023-03-24T15:20:48;11.60;1.00
46416;DHT22;32620;51.704;7.822;2023-03-24T15:23:18;11.60;1.00
46416;DHT22;32620;51.704;7.822;2023-03-24T15:25:44;11.70;1.00
46416;DHT22;32620;51.704;7.822;2023-03-24T15:28:20;11.80;1.00
46416;DHT22;32620;51.704;7.822;2023-03-24T15:30:47;11.80;1.00
46416;DHT22;32620;51.704;7.822;2023-03-24T15:33:13;11.80;1.00
46416;DHT22;32620;51.704;7.822;2023-03-24T15:35:39;11.60;1.00
46416;DHT22;32620;51.704;7.822;2023-03-24T15:38:05;11.50;1.00
46416;DHT22;32620;51.704;7.822;2023-03-24T15:40:33;11.50;1.00
46416;DHT22;32620;51.704;7.822;2023-03-24T15:43:02;11.50;1.00
46416;DHT22;32620;51.704;7.822;2023-03-24T15:45:31;11.30;1.00
46416;DHT22;32620;51.704;7.822;2023-03-24T15:48:06;11.30;1.00
46416;DHT22;32620;51.704;7.822;2023-03-24T15:50:36;11.30;1.00
46416;DHT22;32620;51.704;7.822;2023-03-24T15:53:22;11.30;1.00
46416;DHT22;32620;51.704;7.822;2023-03-24T15:56:02;11.30;15.40
46416;DHT22;32620;51.704;7.822;2023-03-24T15:58:29;11.50;11.80
46416;DHT22;32620;51.704;7.822;2023-03-24T16:00:59;11.70;1.90
46416;DHT22;32620;51.704;7.822;2023-03-24T16:03:28;11.90;1.00
46416;DHT22;32620;51.704;7.822;2023-03-24T16:05:55;11.90;1.00
46416;DHT22;32620;51.704;7.822;2023-03-24T16:08:27;11.70;1.00
46416;DHT22;32620;51.704;7.822;2023-03-24T16:10:58;11.60;1.00
46416;DHT22;32620;51.704;7.822;2023-03-24T16:13:24;11.60;2.90
46416;DHT22;32620;51.704;7.822;2023-03-24T16:18:49;11.60;1.00
46416;DHT22;32620;51.704;7.822;2023-03-24T16:21:23;11.60;10.00
46416;DHT22;32620;51.704;7.822;2023-03-24T16:23:50;11.60;13.10
46416;DHT22;32620;51.704;7.822;2023-03-24T16:26:20;11.50;22.70
46416;DHT22;32620;51.704;7.822;2023-03-24T16:28:47;11.30;18.30
46416;DHT22;32620;51.704;7.822;2023-03-24T16:31:24;11.30;18.70
46416;DHT22;32620;51.704;7.822;2023-03-24T16:33:52;11.20;23.40
46416;DHT22;32620;51.704;7.822;2023-03-24T16:36:19;11.20;32.90
46416;DHT22;32620;51.704;7.822;2023-03-24T16:38:47;11.20;42.90
46416;DHT22;32620;51.704;7.822;2023-03-24T16:41:14;11.20;52.10
46416;DHT22;32620;51.704;7.822;2023-03-24T16:43:40;11.20;48.60
46416;DHT22;32620;51.704;7.822;2023-03-24T16:46:12;11.20;56.70
46416;DHT22;32620;51.704;7.822;2023-03-24T16:48:38;11.20;54.70
46416;DHT22;32620;51.704;7.822;2023-03-24T16:51:04;11.20;57.90
46416;DHT22;32620;51.704;7.822;2023-03-24T16:53:29;11.10;80.80
46416;DHT22;32620;51.704;7.822;2023-03-24T16:55:55;11.00;92.80
46416;DHT22;32620;51.704;7.822;2023-03-24T16:58:21;10.90;85.60
46416;DHT22;32620;51.704;7.822;2023-03-24T17:00:46;10.80;83.30
46416;DHT22;32620;51.704;7.822;2023-03-24T17:03:13;10.70;92.80
46416;DHT22;32620;51.704;7.822;2023-03-24T17:05:43;10.70;77.10
46416;DHT22;32620;51.704;7.822;2023-03-24T17:08:11;10.60;86.80
46416;DHT22;32620;51.704;7.822;2023-03-24T17:10:37;10.50;93.00
46416;DHT22;32620;51.704;7.822;2023-03-24T17:13:03;10.50;98.90
46416;DHT22;32620;51.704;7.822;2023-03-24T17:15:29;10.60;99.90
46416;DHT22;32620;51.704;7.822;2023-03-24T17:17:55;10.60;99.90
46416;DHT22;32620;51.704;7.822;2023-03-24T17:20:24;10.70;99.90
46416;DHT22;32620;51.704;7.822;2023-03-24T17:22:53;10.70;99.90
46416;DHT22;32620;51.704;7.822;2023-03-24T17:25:20;10.70;99.90
46416;DHT22;32620;51.704;7.822;2023-03-24T17:27:48;10.70;99.90
46416;DHT22;32620;51.704;7.822;2023-03-24T17:30:16;10.70;99.90
46416;DHT22;32620;51.704;7.822;2023-03-24T17:32:42;10.70;99.90
46416;DHT22;32620;51.704;7.822;2023-03-24T17:35:10;10.70;97.80
46416;DHT22;32620;51.704;7.822;2023-03-24T17:37:36;10.60;91.70
46416;DHT22;32620;51.704;7.822;2023-03-24T17:40:03;10.60;91.50
46416;DHT22;32620;51.704;7.822;2023-03-24T17:42:38;10.60;90.10
46416;DHT22;32620;51.704;7.822;2023-03-24T17:45:05;10.50;86.20
46416;DHT22;32620;51.704;7.822;2023-03-24T17:47:31;10.40;76.00
46416;DHT22;32620;51.704;7.822;2023-03-24T17:49:56;10.30;58.90
46416;DHT22;32620;51.704;7.822;2023-03-24T17:52:22;10.20;53.70
46416;DHT22;32620;51.704;7.822;2023-03-24T17:54:48;10.20;50.60
46416;DHT22;32620;51.704;7.822;2023-03-24T17:57:13;10.20;53.10
46416;DHT22;32620;51.704;7.822;2023-03-24T17:59:39;10.20;62.70
46416;DHT22;32620;51.704;7.822;2023-03-24T18:02:06;10.10;49.80
46416;DHT22;32620;51.704;7.822;2023-03-24T18:04:32;10.10;47.90
46416;DHT22;32620;51.704;7.822;2023-03-24T18:06:58;10.00;53.10
46416;DHT22;32620;51.704;7.822;2023-03-24T18:09:25;9.90;57.60
46416;DHT22;32620;51.704;7.822;2023-03-24T18:11:51;9.90;60.20
46416;DHT22;32620;51.704;7.822;2023-03-24T18:14:17;9.80;60.00
46416;DHT22;32620;51.704;7.822;2023-03-24T18:16:42;9.70;71.60
46416;DHT22;32620;51.704;7.822;2023-03-24T18:19:08;9.70;78.40
46416;DHT22;32620;51.704;7.822;2023-03-24T18:21:33;9.60;83.80
46416;DHT22;32620;51.704;7.822;2023-03-24T18:23:59;9.50;90.40
46416;DHT22;32620;51.704;7.822;2023-03-24T18:26:25;9.50;90.40
46416;DHT22;32620;51.704;7.822;2023-03-24T18:28:51;9.50;87.40
46416;DHT22;32620;51.704;7.822;2023-03-24T18:31:19;9.50;92.60
46416;DHT22;32620;51.704;7.822;2023-03-24T18:33:46;9.40;90.70
46416;DHT22;32620;51.704;7.822;2023-03-24T18:36:13;9.30;93.80
46416;DHT22;32620;51.704;7.822;2023-03-24T18:38:41;9.30;97.90
46416;DHT22;32620;51.704;7.822;2023-03-24T18:41:07;9.30;98.90
46416;DHT22;32620;51.704;7.822;2023-03-24T18:43:34;9.20;96.80
46416;DHT22;32620;51.704;7.822;2023-03-24T18:46:05;9.10;99.00
46416;DHT22;32620;51.704;7.822;2023-03-24T18:48:34;9.00;99.50
46416;DHT22;32620;51.704;7.822;2023-03-24T18:51:00;8.90;99.90
46416;DHT22;32620;51.704;7.822;2023-03-24T18:53:26;8.90;99.90
46416;DHT22;32620;51.704;7.822;2023-03-24T18:55:52;8.70;99.90
46416;DHT22;32620;51.704;7.822;2023-03-24T18:58:17;8.60;99.90
46416;DHT22;32620;51.704;7.822;2023-03-24T19:00:48;8.60;99.90
46416;DHT22;32620;51.704;7.822;2023-03-24T19:03:15;8.50;99.90
46416;DHT22;32620;51.704;7.822;2023-03-24T19:05:41;8.40;99.90